Seattle Tacoma International Airport
KSEA : now visible

Airfield :











YOU CAN JOIN US ON...

 
LOGIN :

Register | Disclaimer

   EN    FR    IT 

 









Legend :    VFR   Marginal VFR   IFR   Intensive IFR   Very Intensive IFR
Visi :
Ceiling :
>= 8 km
>= 3000ft
5 to 8 km
1000 to 3000 ft
1500m to 5 km
500 to 1000 ft
800 to 1500m
200 to 500 ft
< 800m
< 200 ft
Symbols :   Thunderstorms  Fog  Heavy snow  Heavy precipitations  Wind > 20 kt






- Airport Elevation : 433 ft
- IATA code : SEA


KSEA - Seattle Tacoma International

CURRENT METAR :
  • 190953Z 21003KT 10SM SCT027 BKN060 OVC070 11/10 A2982 RMK AO2 SLP105 T01110100

EXPIRED METARs :
  • 190853Z 19004KT 10SM BKN080 11/09 A2981 RMK AO2 SLP100 60000 T01060094 53003
  • 190802Z 16009KT 10SM SCT023 SCT030 OVC075 11/10 A2981 RMK AO2 T01110100

TAF KSEA
Valid from the 19 at 09:00 until the 20 at 12:00 UTC


190902Z 1909/2012 18006KT P6SM VCSH SCT015 BKN050
FM191800 21008KT P6SM VCSH SCT020 BKN040
FM192200 VRB04KT P6SM VCSH SCT025 BKN050
FM200800 18006KT P6SM BKN020
KZSE FIR / North America



MET'MAP, your aeronautical weather chart ! - Copyright ORBIFLY December 2007 - Disclaimer

ORBIFLY MET'MAP TEAM :

Programming & Development : Alexandra Zaïnal
Concept & original design : Baudouin d'Aumeries
Assistance for programming : Marc-Olivier Méhu
Technical & hardware support : Manuel Goepfert

Contact : metmap@orbifly.com




SOURCES & CREDITS :

   NOAA       Earth
Advisory